sensor_id;sensor_type;location;lat;lon;timestamp;P1;durP1;ratioP1;P2;durP2;ratioP2
28007;SDS011;15333;50.010;20.020;2023-07-24T00:02:53;7.53;;;5.20;;
28007;SDS011;15333;50.010;20.020;2023-07-24T00:05:57;9.80;;;5.03;;
28007;SDS011;15333;50.010;20.020;2023-07-24T00:08:59;8.45;;;4.80;;
28007;SDS011;15333;50.010;20.020;2023-07-24T00:12:00;13.60;;;5.43;;
28007;SDS011;15333;50.010;20.020;2023-07-24T00:15:01;9.20;;;5.07;;
28007;SDS011;15333;50.010;20.020;2023-07-24T00:18:02;6.63;;;4.72;;
28007;SDS011;15333;50.010;20.020;2023-07-24T00:21:03;7.38;;;5.40;;
28007;SDS011;15333;50.010;20.020;2023-07-24T00:24:04;6.43;;;4.70;;
28007;SDS011;15333;50.010;20.020;2023-07-24T00:27:05;6.93;;;5.10;;
28007;SDS011;15333;50.010;20.020;2023-07-24T00:30:07;8.02;;;5.60;;
28007;SDS011;15333;50.010;20.020;2023-07-24T00:33:08;8.75;;;5.28;;
28007;SDS011;15333;50.010;20.020;2023-07-24T00:36:09;7.82;;;5.28;;
28007;SDS011;15333;50.010;20.020;2023-07-24T00:39:10;8.73;;;5.57;;
28007;SDS011;15333;50.010;20.020;2023-07-24T00:42:11;8.57;;;5.63;;
28007;SDS011;15333;50.010;20.020;2023-07-24T00:45:12;7.53;;;5.68;;
28007;SDS011;15333;50.010;20.020;2023-07-24T00:48:13;10.55;;;5.90;;
28007;SDS011;15333;50.010;20.020;2023-07-24T00:51:14;8.85;;;5.90;;
28007;SDS011;15333;50.010;20.020;2023-07-24T00:54:16;8.13;;;5.72;;
28007;SDS011;15333;50.010;20.020;2023-07-24T00:57:18;8.32;;;5.60;;
28007;SDS011;15333;50.010;20.020;2023-07-24T01:00:20;8.30;;;5.95;;
28007;SDS011;15333;50.010;20.020;2023-07-24T01:03:22;8.38;;;5.45;;
28007;SDS011;15333;50.010;20.020;2023-07-24T01:06:31;8.43;;;4.68;;
28007;SDS011;15333;50.010;20.020;2023-07-24T01:09:31;9.45;;;5.82;;
28007;SDS011;15333;50.010;20.020;2023-07-24T01:12:38;9.63;;;5.88;;
28007;SDS011;15333;50.010;20.020;2023-07-24T01:15:46;8.65;;;5.25;;
28007;SDS011;15333;50.010;20.020;2023-07-24T01:18:53;9.10;;;5.90;;
28007;SDS011;15333;50.010;20.020;2023-07-24T01:25:33;10.70;;;5.28;;
28007;SDS011;15333;50.010;20.020;2023-07-24T01:28:36;7.65;;;5.40;;
28007;SDS011;15333;50.010;20.020;2023-07-24T01:31:37;10.27;;;5.50;;
28007;SDS011;15333;50.010;20.020;2023-07-24T01:34:38;6.80;;;5.28;;
28007;SDS011;15333;50.010;20.020;2023-07-24T01:37:39;9.90;;;5.38;;
28007;SDS011;15333;50.010;20.020;2023-07-24T01:40:42;8.40;;;4.90;;
28007;SDS011;15333;50.010;20.020;2023-07-24T01:43:44;8.93;;;5.38;;
28007;SDS011;15333;50.010;20.020;2023-07-24T01:46:44;6.68;;;5.20;;
28007;SDS011;15333;50.010;20.020;2023-07-24T01:49:48;7.72;;;4.97;;
28007;SDS011;15333;50.010;20.020;2023-07-24T01:52:49;8.32;;;5.40;;
28007;SDS011;15333;50.010;20.020;2023-07-24T01:55:50;7.65;;;4.78;;
28007;SDS011;15333;50.010;20.020;2023-07-24T01:58:50;8.93;;;5.30;;
28007;SDS011;15333;50.010;20.020;2023-07-24T02:01:52;8.13;;;5.00;;
28007;SDS011;15333;50.010;20.020;2023-07-24T02:04:52;8.23;;;5.38;;
28007;SDS011;15333;50.010;20.020;2023-07-24T02:07:54;8.55;;;4.88;;
28007;SDS011;15333;50.010;20.020;2023-07-24T02:10:55;8.95;;;5.07;;
28007;SDS011;15333;50.010;20.020;2023-07-24T02:13:56;6.28;;;4.60;;
28007;SDS011;15333;50.010;20.020;2023-07-24T02:16:57;7.35;;;5.28;;
28007;SDS011;15333;50.010;20.020;2023-07-24T02:19:58;10.13;;;6.28;;
28007;SDS011;15333;50.010;20.020;2023-07-24T02:22:58;10.07;;;6.38;;
28007;SDS011;15333;50.010;20.020;2023-07-24T02:26:00;11.80;;;6.22;;
28007;SDS011;15333;50.010;20.020;2023-07-24T02:29:16;8.52;;;5.90;;
28007;SDS011;15333;50.010;20.020;2023-07-24T02:32:36;8.02;;;5.13;;
28007;SDS011;15333;50.010;20.020;2023-07-24T02:35:40;9.18;;;5.45;;
28007;SDS011;15333;50.010;20.020;2023-07-24T02:38:49;8.13;;;5.18;;
28007;SDS011;15333;50.010;20.020;2023-07-24T02:41:50;7.07;;;5.28;;
28007;SDS011;15333;50.010;20.020;2023-07-24T02:44:52;10.23;;;5.80;;
28007;SDS011;15333;50.010;20.020;2023-07-24T02:47:53;8.57;;;5.38;;
28007;SDS011;15333;50.010;20.020;2023-07-24T02:50:54;9.00;;;5.10;;
28007;SDS011;15333;50.010;20.020;2023-07-24T02:53:55;9.20;;;5.38;;
28007;SDS011;15333;50.010;20.020;2023-07-24T02:56:56;8.13;;;5.40;;
28007;SDS011;15333;50.010;20.020;2023-07-24T02:59:58;10.27;;;5.30;;
28007;SDS011;15333;50.010;20.020;2023-07-24T03:02:59;10.02;;;5.38;;
28007;SDS011;15333;50.010;20.020;2023-07-24T03:06:00;6.95;;;5.70;;
28007;SDS011;15333;50.010;20.020;2023-07-24T03:09:02;9.13;;;5.75;;
28007;SDS011;15333;50.010;20.020;2023-07-24T03:12:03;10.73;;;5.22;;
28007;SDS011;15333;50.010;20.020;2023-07-24T03:15:04;7.35;;;5.30;;
28007;SDS011;15333;50.010;20.020;2023-07-24T03:18:05;9.05;;;4.97;;
28007;SDS011;15333;50.010;20.020;2023-07-24T03:21:06;8.90;;;6.20;;
28007;SDS011;15333;50.010;20.020;2023-07-24T03:24:07;12.07;;;5.97;;
28007;SDS011;15333;50.010;20.020;2023-07-24T03:27:08;12.10;;;5.68;;
28007;SDS011;15333;50.010;20.020;2023-07-24T03:30:09;9.13;;;6.25;;
28007;SDS011;15333;50.010;20.020;2023-07-24T03:33:10;10.93;;;5.65;;
28007;SDS011;15333;50.010;20.020;2023-07-24T03:36:12;10.10;;;6.25;;
28007;SDS011;15333;50.010;20.020;2023-07-24T03:39:13;9.35;;;6.03;;
28007;SDS011;15333;50.010;20.020;2023-07-24T03:42:23;9.48;;;5.55;;
28007;SDS011;15333;50.010;20.020;2023-07-24T03:45:28;13.00;;;6.50;;
28007;SDS011;15333;50.010;20.020;2023-07-24T03:48:29;8.98;;;5.97;;
28007;SDS011;15333;50.010;20.020;2023-07-24T03:51:30;9.65;;;5.70;;
28007;SDS011;15333;50.010;20.020;2023-07-24T03:54:31;10.18;;;6.55;;
28007;SDS011;15333;50.010;20.020;2023-07-24T03:57:32;12.00;;;6.40;;
28007;SDS011;15333;50.010;20.020;2023-07-24T04:00:33;11.05;;;5.80;;
28007;SDS011;15333;50.010;20.020;2023-07-24T04:03:34;8.43;;;5.90;;
28007;SDS011;15333;50.010;20.020;2023-07-24T04:06:35;10.52;;;5.82;;
28007;SDS011;15333;50.010;20.020;2023-07-24T04:09:36;10.80;;;5.47;;
28007;SDS011;15333;50.010;20.020;2023-07-24T04:12:37;10.60;;;5.63;;
28007;SDS011;15333;50.010;20.020;2023-07-24T04:15:38;10.15;;;5.68;;
28007;SDS011;15333;50.010;20.020;2023-07-24T04:18:39;8.48;;;5.93;;
28007;SDS011;15333;50.010;20.020;2023-07-24T04:21:40;11.43;;;5.80;;
28007;SDS011;15333;50.010;20.020;2023-07-24T04:24:41;11.65;;;6.10;;
28007;SDS011;15333;50.010;20.020;2023-07-24T04:27:42;11.40;;;6.65;;
28007;SDS011;15333;50.010;20.020;2023-07-24T04:30:43;12.30;;;6.30;;
28007;SDS011;15333;50.010;20.020;2023-07-24T04:33:44;12.48;;;6.75;;
28007;SDS011;15333;50.010;20.020;2023-07-24T04:36:45;13.77;;;6.53;;
28007;SDS011;15333;50.010;20.020;2023-07-24T04:39:46;9.57;;;6.22;;
28007;SDS011;15333;50.010;20.020;2023-07-24T04:42:46;11.65;;;6.85;;
28007;SDS011;15333;50.010;20.020;2023-07-24T04:45:47;13.38;;;5.72;;
28007;SDS011;15333;50.010;20.020;2023-07-24T04:48:48;10.55;;;6.38;;
28007;SDS011;15333;50.010;20.020;2023-07-24T04:51:49;11.38;;;6.20;;
28007;SDS011;15333;50.010;20.020;2023-07-24T04:54:51;14.48;;;7.05;;
28007;SDS011;15333;50.010;20.020;2023-07-24T04:57:52;9.68;;;6.20;;
28007;SDS011;15333;50.010;20.020;2023-07-24T05:00:53;10.05;;;6.00;;
28007;SDS011;15333;50.010;20.020;2023-07-24T05:03:54;14.27;;;6.05;;
28007;SDS011;15333;50.010;20.020;2023-07-24T05:06:54;6.97;;;5.38;;
28007;SDS011;15333;50.010;20.020;2023-07-24T05:09:55;11.50;;;6.07;;
28007;SDS011;15333;50.010;20.020;2023-07-24T05:12:56;20.77;;;6.38;;
28007;SDS011;15333;50.010;20.020;2023-07-24T05:15:57;11.35;;;5.63;;
28007;SDS011;15333;50.010;20.020;2023-07-24T05:18:59;9.23;;;6.00;;
28007;SDS011;15333;50.010;20.020;2023-07-24T05:22:00;10.57;;;6.43;;
28007;SDS011;15333;50.010;20.020;2023-07-24T05:25:01;9.93;;;5.90;;
28007;SDS011;15333;50.010;20.020;2023-07-24T05:28:02;9.95;;;5.35;;
28007;SDS011;15333;50.010;20.020;2023-07-24T05:31:03;6.68;;;5.22;;
28007;SDS011;15333;50.010;20.020;2023-07-24T05:34:05;7.25;;;5.88;;
28007;SDS011;15333;50.010;20.020;2023-07-24T05:37:06;12.82;;;5.78;;
28007;SDS011;15333;50.010;20.020;2023-07-24T05:40:07;10.90;;;7.43;;
28007;SDS011;15333;50.010;20.020;2023-07-24T05:43:08;8.43;;;5.85;;
28007;SDS011;15333;50.010;20.020;2023-07-24T05:46:09;11.52;;;6.53;;
28007;SDS011;15333;50.010;20.020;2023-07-24T05:49:10;10.82;;;6.32;;
28007;SDS011;15333;50.010;20.020;2023-07-24T05:52:11;10.18;;;6.07;;
28007;SDS011;15333;50.010;20.020;2023-07-24T05:55:12;9.98;;;6.65;;
28007;SDS011;15333;50.010;20.020;2023-07-24T05:58:14;11.23;;;6.05;;
28007;SDS011;15333;50.010;20.020;2023-07-24T06:01:15;9.25;;;6.07;;
28007;SDS011;15333;50.010;20.020;2023-07-24T06:04:16;10.23;;;5.97;;
28007;SDS011;15333;50.010;20.020;2023-07-24T06:07:17;9.32;;;6.28;;
28007;SDS011;15333;50.010;20.020;2023-07-24T06:10:18;8.27;;;6.65;;
28007;SDS011;15333;50.010;20.020;2023-07-24T06:13:18;11.25;;;6.30;;
28007;SDS011;15333;50.010;20.020;2023-07-24T06:16:20;8.93;;;6.10;;
28007;SDS011;15333;50.010;20.020;2023-07-24T06:19:21;11.05;;;6.88;;
28007;SDS011;15333;50.010;20.020;2023-07-24T06:22:22;9.70;;;6.82;;
28007;SDS011;15333;50.010;20.020;2023-07-24T06:25:23;7.35;;;6.13;;
28007;SDS011;15333;50.010;20.020;2023-07-24T06:28:24;10.60;;;7.25;;
28007;SDS011;15333;50.010;20.020;2023-07-24T06:31:24;10.75;;;6.57;;
28007;SDS011;15333;50.010;20.020;2023-07-24T06:34:25;10.80;;;7.28;;
28007;SDS011;15333;50.010;20.020;2023-07-24T06:37:26;11.18;;;7.38;;
28007;SDS011;15333;50.010;20.020;2023-07-24T06:40:27;11.70;;;7.07;;
28007;SDS011;15333;50.010;20.020;2023-07-24T06:43:28;11.18;;;7.22;;
28007;SDS011;15333;50.010;20.020;2023-07-24T06:46:29;9.07;;;6.70;;
28007;SDS011;15333;50.010;20.020;2023-07-24T06:49:30;13.50;;;7.07;;
28007;SDS011;15333;50.010;20.020;2023-07-24T06:52:31;14.02;;;6.82;;
28007;SDS011;15333;50.010;20.020;2023-07-24T06:55:32;10.02;;;7.30;;
28007;SDS011;15333;50.010;20.020;2023-07-24T06:58:33;9.68;;;6.60;;
28007;SDS011;15333;50.010;20.020;2023-07-24T07:01:34;13.35;;;6.95;;
28007;SDS011;15333;50.010;20.020;2023-07-24T07:04:35;10.85;;;7.15;;
28007;SDS011;15333;50.010;20.020;2023-07-24T07:07:36;8.90;;;6.45;;
28007;SDS011;15333;50.010;20.020;2023-07-24T07:10:37;8.32;;;6.50;;
28007;SDS011;15333;50.010;20.020;2023-07-24T07:13:38;9.32;;;6.55;;
28007;SDS011;15333;50.010;20.020;2023-07-24T07:16:39;13.95;;;6.95;;
28007;SDS011;15333;50.010;20.020;2023-07-24T07:19:41;10.75;;;6.88;;
28007;SDS011;15333;50.010;20.020;2023-07-24T07:22:42;12.20;;;7.88;;
28007;SDS011;15333;50.010;20.020;2023-07-24T07:25:43;10.70;;;7.03;;
28007;SDS011;15333;50.010;20.020;2023-07-24T07:28:45;10.85;;;6.28;;
28007;SDS011;15333;50.010;20.020;2023-07-24T07:31:46;11.18;;;6.82;;
28007;SDS011;15333;50.010;20.020;2023-07-24T07:34:47;11.25;;;6.50;;
28007;SDS011;15333;50.010;20.020;2023-07-24T07:37:48;9.48;;;6.50;;
28007;SDS011;15333;50.010;20.020;2023-07-24T07:40:49;11.48;;;6.13;;
28007;SDS011;15333;50.010;20.020;2023-07-24T07:43:50;9.18;;;6.25;;
28007;SDS011;15333;50.010;20.020;2023-07-24T07:46:51;10.98;;;6.68;;
28007;SDS011;15333;50.010;20.020;2023-07-24T07:49:51;13.30;;;6.60;;
28007;SDS011;15333;50.010;20.020;2023-07-24T07:52:53;10.68;;;6.93;;
28007;SDS011;15333;50.010;20.020;2023-07-24T07:55:57;10.95;;;6.75;;
28007;SDS011;15333;50.010;20.020;2023-07-24T07:58:59;9.30;;;6.43;;
28007;SDS011;15333;50.010;20.020;2023-07-24T08:02:00;12.48;;;6.90;;
28007;SDS011;15333;50.010;20.020;2023-07-24T08:05:02;11.10;;;6.60;;
28007;SDS011;15333;50.010;20.020;2023-07-24T08:08:03;11.15;;;7.32;;
28007;SDS011;15333;50.010;20.020;2023-07-24T08:11:05;10.82;;;6.80;;
28007;SDS011;15333;50.010;20.020;2023-07-24T08:14:06;11.18;;;6.43;;
28007;SDS011;15333;50.010;20.020;2023-07-24T08:17:07;9.13;;;6.85;;
28007;SDS011;15333;50.010;20.020;2023-07-24T08:20:08;8.48;;;6.65;;
28007;SDS011;15333;50.010;20.020;2023-07-24T08:23:09;8.63;;;6.47;;
28007;SDS011;15333;50.010;20.020;2023-07-24T08:26:10;13.48;;;7.10;;
28007;SDS011;15333;50.010;20.020;2023-07-24T08:29:12;9.93;;;6.47;;
28007;SDS011;15333;50.010;20.020;2023-07-24T08:32:13;9.75;;;6.55;;
28007;SDS011;15333;50.010;20.020;2023-07-24T08:35:13;12.70;;;7.10;;
28007;SDS011;15333;50.010;20.020;2023-07-24T08:38:14;11.40;;;6.97;;
28007;SDS011;15333;50.010;20.020;2023-07-24T08:41:15;11.23;;;6.63;;
28007;SDS011;15333;50.010;20.020;2023-07-24T08:44:16;9.93;;;6.60;;
28007;SDS011;15333;50.010;20.020;2023-07-24T08:47:17;12.30;;;7.47;;
28007;SDS011;15333;50.010;20.020;2023-07-24T08:50:19;19.73;;;8.73;;
28007;SDS011;15333;50.010;20.020;2023-07-24T08:53:21;9.38;;;6.07;;
28007;SDS011;15333;50.010;20.020;2023-07-24T08:56:23;13.25;;;6.80;;
28007;SDS011;15333;50.010;20.020;2023-07-24T08:59:24;11.20;;;6.32;;
28007;SDS011;15333;50.010;20.020;2023-07-24T09:02:24;9.38;;;6.65;;
28007;SDS011;15333;50.010;20.020;2023-07-24T09:05:26;16.02;;;7.00;;
28007;SDS011;15333;50.010;20.020;2023-07-24T09:11:44;11.75;;;8.05;;
28007;SDS011;15333;50.010;20.020;2023-07-24T09:15:01;8.43;;;6.83;;
28007;SDS011;15333;50.010;20.020;2023-07-24T09:18:03;22.98;;;8.48;;
28007;SDS011;15333;50.010;20.020;2023-07-24T09:21:04;9.80;;;6.35;;
28007;SDS011;15333;50.010;20.020;2023-07-24T09:24:09;12.38;;;7.30;;
28007;SDS011;15333;50.010;20.020;2023-07-24T09:27:19;10.00;;;7.10;;
28007;SDS011;15333;50.010;20.020;2023-07-24T09:30:20;9.73;;;6.82;;
28007;SDS011;15333;50.010;20.020;2023-07-24T09:33:37;12.65;;;7.38;;
28007;SDS011;15333;50.010;20.020;2023-07-24T09:36:40;11.07;;;7.30;;
28007;SDS011;15333;50.010;20.020;2023-07-24T09:39:40;9.07;;;7.10;;
28007;SDS011;15333;50.010;20.020;2023-07-24T09:42:41;11.70;;;7.60;;
28007;SDS011;15333;50.010;20.020;2023-07-24T09:45:42;9.55;;;7.50;;
28007;SDS011;15333;50.010;20.020;2023-07-24T09:48:44;24.58;;;8.90;;
28007;SDS011;15333;50.010;20.020;2023-07-24T09:51:45;12.43;;;7.43;;
28007;SDS011;15333;50.010;20.020;2023-07-24T09:55:03;10.95;;;7.15;;
28007;SDS011;15333;50.010;20.020;2023-07-24T09:58:10;10.25;;;7.68;;
28007;SDS011;15333;50.010;20.020;2023-07-24T10:01:12;13.55;;;7.95;;
28007;SDS011;15333;50.010;20.020;2023-07-24T10:04:14;10.43;;;7.65;;
28007;SDS011;15333;50.010;20.020;2023-07-24T10:07:16;11.60;;;7.85;;
28007;SDS011;15333;50.010;20.020;2023-07-24T10:10:22;15.80;;;7.40;;
28007;SDS011;15333;50.010;20.020;2023-07-24T10:13:25;11.25;;;7.55;;
28007;SDS011;15333;50.010;20.020;2023-07-24T10:16:27;15.68;;;8.10;;
28007;SDS011;15333;50.010;20.020;2023-07-24T10:19:40;11.93;;;8.75;;
28007;SDS011;15333;50.010;20.020;2023-07-24T10:22:45;14.68;;;8.57;;
28007;SDS011;15333;50.010;20.020;2023-07-24T10:25:49;12.48;;;8.50;;
28007;SDS011;15333;50.010;20.020;2023-07-24T10:28:52;13.40;;;8.27;;
28007;SDS011;15333;50.010;20.020;2023-07-24T10:31:54;12.15;;;8.23;;
28007;SDS011;15333;50.010;20.020;2023-07-24T10:34:55;14.18;;;9.10;;
28007;SDS011;15333;50.010;20.020;2023-07-24T10:38:01;12.55;;;8.73;;
28007;SDS011;15333;50.010;20.020;2023-07-24T10:41:03;12.52;;;7.85;;
28007;SDS011;15333;50.010;20.020;2023-07-24T10:44:06;12.38;;;8.98;;
28007;SDS011;15333;50.010;20.020;2023-07-24T10:47:07;13.57;;;8.98;;
28007;SDS011;15333;50.010;20.020;2023-07-24T10:50:08;12.82;;;9.20;;
28007;SDS011;15333;50.010;20.020;2023-07-24T10:53:09;18.10;;;9.85;;
28007;SDS011;15333;50.010;20.020;2023-07-24T10:56:10;15.25;;;9.55;;
28007;SDS011;15333;50.010;20.020;2023-07-24T10:59:11;11.57;;;9.05;;
28007;SDS011;15333;50.010;20.020;2023-07-24T11:02:16;12.55;;;9.10;;
28007;SDS011;15333;50.010;20.020;2023-07-24T11:05:17;16.67;;;9.80;;
28007;SDS011;15333;50.010;20.020;2023-07-24T11:08:20;25.95;;;9.63;;
28007;SDS011;15333;50.010;20.020;2023-07-24T11:11:21;37.45;;;34.60;;
28007;SDS011;15333;50.010;20.020;2023-07-24T11:14:23;14.98;;;8.52;;
28007;SDS011;15333;50.010;20.020;2023-07-24T11:17:34;27.98;;;9.50;;
28007;SDS011;15333;50.010;20.020;2023-07-24T11:20:45;17.25;;;9.65;;
28007;SDS011;15333;50.010;20.020;2023-07-24T11:23:56;15.32;;;9.00;;
28007;SDS011;15333;50.010;20.020;2023-07-24T11:26:57;19.20;;;12.63;;
28007;SDS011;15333;50.010;20.020;2023-07-24T11:29:58;19.02;;;11.43;;
28007;SDS011;15333;50.010;20.020;2023-07-24T11:32:59;14.35;;;9.23;;
28007;SDS011;15333;50.010;20.020;2023-07-24T11:36:02;12.70;;;9.27;;
28007;SDS011;15333;50.010;20.020;2023-07-24T11:39:03;16.77;;;8.95;;
28007;SDS011;15333;50.010;20.020;2023-07-24T11:42:04;15.55;;;9.20;;
28007;SDS011;15333;50.010;20.020;2023-07-24T11:45:07;14.27;;;8.95;;
28007;SDS011;15333;50.010;20.020;2023-07-24T11:48:10;14.50;;;8.85;;
28007;SDS011;15333;50.010;20.020;2023-07-24T11:51:12;11.85;;;8.77;;
28007;SDS011;15333;50.010;20.020;2023-07-24T11:54:13;15.82;;;8.75;;
28007;SDS011;15333;50.010;20.020;2023-07-24T11:57:15;15.00;;;8.95;;
28007;SDS011;15333;50.010;20.020;2023-07-24T12:00:18;13.70;;;8.43;;
28007;SDS011;15333;50.010;20.020;2023-07-24T12:03:29;12.65;;;9.07;;
28007;SDS011;15333;50.010;20.020;2023-07-24T12:06:31;16.23;;;9.90;;
28007;SDS011;15333;50.010;20.020;2023-07-24T12:09:32;16.75;;;10.18;;
28007;SDS011;15333;50.010;20.020;2023-07-24T12:12:37;19.40;;;10.70;;
28007;SDS011;15333;50.010;20.020;2023-07-24T12:15:48;13.23;;;9.65;;
28007;SDS011;15333;50.010;20.020;2023-07-24T12:18:48;13.98;;;9.50;;
28007;SDS011;15333;50.010;20.020;2023-07-24T12:21:50;14.15;;;9.30;;
28007;SDS011;15333;50.010;20.020;2023-07-24T12:24:50;12.00;;;9.05;;
28007;SDS011;15333;50.010;20.020;2023-07-24T12:27:51;15.45;;;9.10;;
28007;SDS011;15333;50.010;20.020;2023-07-24T12:30:52;13.98;;;9.25;;
28007;SDS011;15333;50.010;20.020;2023-07-24T12:34:12;12.23;;;9.55;;
28007;SDS011;15333;50.010;20.020;2023-07-24T12:37:13;16.45;;;10.18;;
28007;SDS011;15333;50.010;20.020;2023-07-24T12:40:14;14.60;;;9.18;;
28007;SDS011;15333;50.010;20.020;2023-07-24T12:43:15;14.35;;;9.38;;
28007;SDS011;15333;50.010;20.020;2023-07-24T12:46:16;16.35;;;9.90;;
28007;SDS011;15333;50.010;20.020;2023-07-24T12:49:17;14.75;;;9.57;;
28007;SDS011;15333;50.010;20.020;2023-07-24T12:52:18;13.82;;;9.48;;
28007;SDS011;15333;50.010;20.020;2023-07-24T12:55:18;18.05;;;10.07;;
28007;SDS011;15333;50.010;20.020;2023-07-24T12:58:20;14.30;;;10.02;;
28007;SDS011;15333;50.010;20.020;2023-07-24T13:01:20;15.90;;;10.23;;
28007;SDS011;15333;50.010;20.020;2023-07-24T13:04:22;20.80;;;10.43;;
28007;SDS011;15333;50.010;20.020;2023-07-24T13:07:23;17.67;;;9.55;;
28007;SDS011;15333;50.010;20.020;2023-07-24T13:10:24;13.85;;;9.30;;
28007;SDS011;15333;50.010;20.020;2023-07-24T13:13:25;17.20;;;9.85;;
28007;SDS011;15333;50.010;20.020;2023-07-24T13:16:26;15.50;;;9.82;;
28007;SDS011;15333;50.010;20.020;2023-07-24T13:19:27;16.08;;;9.48;;
28007;SDS011;15333;50.010;20.020;2023-07-24T13:22:28;17.00;;;10.05;;
28007;SDS011;15333;50.010;20.020;2023-07-24T13:25:29;28.63;;;12.15;;
28007;SDS011;15333;50.010;20.020;2023-07-24T13:28:30;14.88;;;10.35;;
28007;SDS011;15333;50.010;20.020;2023-07-24T13:31:31;20.02;;;11.02;;
28007;SDS011;15333;50.010;20.020;2023-07-24T13:34:32;13.57;;;9.35;;
28007;SDS011;15333;50.010;20.020;2023-07-24T13:37:33;22.17;;;10.27;;
28007;SDS011;15333;50.010;20.020;2023-07-24T13:40:34;19.20;;;10.43;;
28007;SDS011;15333;50.010;20.020;2023-07-24T13:43:36;16.35;;;11.10;;
28007;SDS011;15333;50.010;20.020;2023-07-24T13:46:37;19.58;;;11.38;;
28007;SDS011;15333;50.010;20.020;2023-07-24T13:49:37;23.13;;;10.80;;
28007;SDS011;15333;50.010;20.020;2023-07-24T13:52:38;17.35;;;10.18;;
28007;SDS011;15333;50.010;20.020;2023-07-24T13:55:39;19.08;;;10.20;;
28007;SDS011;15333;50.010;20.020;2023-07-24T13:58:40;16.60;;;9.85;;
28007;SDS011;15333;50.010;20.020;2023-07-24T14:01:41;14.70;;;9.40;;
28007;SDS011;15333;50.010;20.020;2023-07-24T14:04:42;17.98;;;10.30;;
28007;SDS011;15333;50.010;20.020;2023-07-24T14:07:43;21.13;;;10.23;;
28007;SDS011;15333;50.010;20.020;2023-07-24T14:10:45;19.63;;;10.48;;
28007;SDS011;15333;50.010;20.020;2023-07-24T14:13:45;18.20;;;10.05;;
28007;SDS011;15333;50.010;20.020;2023-07-24T14:16:47;17.70;;;10.18;;
28007;SDS011;15333;50.010;20.020;2023-07-24T14:19:47;18.15;;;9.93;;
28007;SDS011;15333;50.010;20.020;2023-07-24T14:22:49;21.27;;;10.05;;
28007;SDS011;15333;50.010;20.020;2023-07-24T14:25:49;16.33;;;10.40;;
28007;SDS011;15333;50.010;20.020;2023-07-24T14:28:50;15.80;;;10.57;;
28007;SDS011;15333;50.010;20.020;2023-07-24T14:31:51;12.18;;;9.52;;
28007;SDS011;15333;50.010;20.020;2023-07-24T14:34:52;14.25;;;10.35;;
28007;SDS011;15333;50.010;20.020;2023-07-24T14:37:53;14.02;;;10.05;;
28007;SDS011;15333;50.010;20.020;2023-07-24T14:40:54;13.48;;;10.35;;
28007;SDS011;15333;50.010;20.020;2023-07-24T14:43:55;16.15;;;10.73;;
28007;SDS011;15333;50.010;20.020;2023-07-24T14:46:56;15.98;;;10.23;;
28007;SDS011;15333;50.010;20.020;2023-07-24T14:49:57;14.57;;;10.10;;
28007;SDS011;15333;50.010;20.020;2023-07-24T14:52:59;13.63;;;10.32;;
28007;SDS011;15333;50.010;20.020;2023-07-24T14:55:59;19.48;;;10.23;;
28007;SDS011;15333;50.010;20.020;2023-07-24T14:59:00;14.20;;;10.18;;
28007;SDS011;15333;50.010;20.020;2023-07-24T15:02:01;14.25;;;10.52;;
28007;SDS011;15333;50.010;20.020;2023-07-24T15:05:02;14.25;;;10.45;;
28007;SDS011;15333;50.010;20.020;2023-07-24T15:08:03;16.08;;;10.18;;
28007;SDS011;15333;50.010;20.020;2023-07-24T15:11:04;14.73;;;10.15;;
28007;SDS011;15333;50.010;20.020;2023-07-24T15:14:05;16.05;;;10.27;;
28007;SDS011;15333;50.010;20.020;2023-07-24T15:17:06;13.93;;;10.13;;
28007;SDS011;15333;50.010;20.020;2023-07-24T15:20:07;16.52;;;10.63;;
28007;SDS011;15333;50.010;20.020;2023-07-24T15:23:09;14.80;;;10.02;;
28007;SDS011;15333;50.010;20.020;2023-07-24T15:26:10;20.15;;;11.20;;
28007;SDS011;15333;50.010;20.020;2023-07-24T15:29:12;15.85;;;10.98;;
28007;SDS011;15333;50.010;20.020;2023-07-24T15:32:15;16.10;;;11.30;;
28007;SDS011;15333;50.010;20.020;2023-07-24T15:35:17;19.92;;;11.98;;
28007;SDS011;15333;50.010;20.020;2023-07-24T15:38:18;16.95;;;11.88;;
28007;SDS011;15333;50.010;20.020;2023-07-24T15:41:19;20.00;;;13.13;;
28007;SDS011;15333;50.010;20.020;2023-07-24T15:44:20;18.50;;;11.75;;
28007;SDS011;15333;50.010;20.020;2023-07-24T15:47:21;16.30;;;11.73;;
28007;SDS011;15333;50.010;20.020;2023-07-24T15:50:22;21.33;;;10.95;;
28007;SDS011;15333;50.010;20.020;2023-07-24T15:53:23;16.88;;;10.80;;
28007;SDS011;15333;50.010;20.020;2023-07-24T15:56:23;17.23;;;11.00;;
28007;SDS011;15333;50.010;20.020;2023-07-24T15:59:24;17.23;;;10.85;;
28007;SDS011;15333;50.010;20.020;2023-07-24T16:02:25;14.65;;;10.80;;
28007;SDS011;15333;50.010;20.020;2023-07-24T16:05:27;18.92;;;10.98;;
28007;SDS011;15333;50.010;20.020;2023-07-24T16:08:27;16.98;;;10.50;;
28007;SDS011;15333;50.010;20.020;2023-07-24T16:11:28;20.15;;;12.00;;
28007;SDS011;15333;50.010;20.020;2023-07-24T16:14:29;16.67;;;10.82;;
28007;SDS011;15333;50.010;20.020;2023-07-24T16:17:30;17.15;;;11.70;;
28007;SDS011;15333;50.010;20.020;2023-07-24T16:20:31;21.35;;;11.57;;
28007;SDS011;15333;50.010;20.020;2023-07-24T16:23:32;17.10;;;10.90;;
28007;SDS011;15333;50.010;20.020;2023-07-24T16:26:33;15.40;;;10.75;;
28007;SDS011;15333;50.010;20.020;2023-07-24T16:29:35;17.88;;;11.27;;
28007;SDS011;15333;50.010;20.020;2023-07-24T16:32:36;16.95;;;11.48;;
28007;SDS011;15333;50.010;20.020;2023-07-24T16:35:37;19.17;;;11.70;;
28007;SDS011;15333;50.010;20.020;2023-07-24T16:38:38;19.17;;;10.68;;
28007;SDS011;15333;50.010;20.020;2023-07-24T16:41:39;15.23;;;11.07;;
28007;SDS011;15333;50.010;20.020;2023-07-24T16:44:40;16.00;;;10.90;;
28007;SDS011;15333;50.010;20.020;2023-07-24T16:47:41;16.38;;;11.35;;
28007;SDS011;15333;50.010;20.020;2023-07-24T16:50:42;19.98;;;11.43;;
28007;SDS011;15333;50.010;20.020;2023-07-24T16:53:43;18.90;;;11.98;;
28007;SDS011;15333;50.010;20.020;2023-07-24T16:56:44;19.73;;;11.95;;
28007;SDS011;15333;50.010;20.020;2023-07-24T16:59:45;19.20;;;12.32;;
28007;SDS011;15333;50.010;20.020;2023-07-24T17:02:46;17.98;;;11.73;;
28007;SDS011;15333;50.010;20.020;2023-07-24T17:05:47;24.45;;;12.45;;
28007;SDS011;15333;50.010;20.020;2023-07-24T17:08:48;18.98;;;12.43;;
28007;SDS011;15333;50.010;20.020;2023-07-24T17:11:49;18.90;;;12.38;;
28007;SDS011;15333;50.010;20.020;2023-07-24T17:14:50;19.88;;;12.32;;
28007;SDS011;15333;50.010;20.020;2023-07-24T17:17:51;24.27;;;13.70;;
28007;SDS011;15333;50.010;20.020;2023-07-24T17:20:52;21.88;;;12.95;;
28007;SDS011;15333;50.010;20.020;2023-07-24T17:23:53;19.50;;;12.32;;
28007;SDS011;15333;50.010;20.020;2023-07-24T17:26:54;23.20;;;11.85;;
28007;SDS011;15333;50.010;20.020;2023-07-24T17:29:55;20.70;;;8.48;;
28007;SDS011;15333;50.010;20.020;2023-07-24T17:32:57;18.92;;;7.53;;
28007;SDS011;15333;50.010;20.020;2023-07-24T17:35:58;19.73;;;7.40;;
28007;SDS011;15333;50.010;20.020;2023-07-24T17:38:59;15.35;;;7.00;;
28007;SDS011;15333;50.010;20.020;2023-07-24T17:42:01;10.88;;;6.55;;
28007;SDS011;15333;50.010;20.020;2023-07-24T17:45:02;13.38;;;7.07;;
28007;SDS011;15333;50.010;20.020;2023-07-24T17:48:04;14.32;;;9.38;;
28007;SDS011;15333;50.010;20.020;2023-07-24T17:51:05;15.95;;;7.95;;